createdAt,value
2022-11-20T00:01:26.917Z,-3.79
2022-11-20T00:03:56.005Z,-3.90
2022-11-20T00:06:23.768Z,-3.92
2022-11-20T00:08:51.599Z,-3.98
2022-11-20T00:11:21.520Z,-3.95
2022-11-20T00:13:50.858Z,-3.92
2022-11-20T00:16:20.513Z,-3.89
2022-11-20T00:18:48.215Z,-3.89
2022-11-20T00:21:22.106Z,-3.88
2022-11-20T00:23:50.574Z,-3.92
2022-11-20T00:26:19.998Z,-3.94
2022-11-20T00:28:52.475Z,-3.95
2022-11-20T00:31:19.797Z,-3.94
2022-11-20T00:33:47.317Z,-3.95
2022-11-20T00:36:17.267Z,-3.94
2022-11-20T00:38:45.269Z,-3.98
2022-11-20T00:41:15.283Z,-3.98
2022-11-20T00:43:42.917Z,-4.03
2022-11-20T00:46:18.882Z,-3.95
2022-11-20T00:48:46.321Z,-4.00
2022-11-20T00:51:21.806Z,-3.98
2022-11-20T00:53:48.927Z,-3.90
2022-11-20T00:56:18.227Z,-3.90
2022-11-20T00:58:47.628Z,-3.94
2022-11-20T01:03:47.675Z,-3.95
2022-11-20T01:06:20.398Z,-3.94
2022-11-20T01:08:48.399Z,-3.97
2022-11-20T01:11:18.147Z,-4.00
2022-11-20T01:13:46.667Z,-4.01
2022-11-20T01:16:34.950Z,-4.02
2022-11-20T01:19:04.667Z,-4.03
2022-11-20T01:21:34.407Z,-4.05
2022-11-20T01:24:02.027Z,-4.10
2022-11-20T01:26:31.334Z,-4.17
2022-11-20T01:28:59.761Z,-4.19
2022-11-20T01:31:29.252Z,-4.20
2022-11-20T01:33:59.599Z,-4.16
2022-11-20T01:36:29.000Z,-4.18
2022-11-20T01:38:58.721Z,-4.14
2022-11-20T01:41:49.158Z,-4.10
2022-11-20T01:44:19.872Z,-4.08
2022-11-20T01:47:00.366Z,-4.16
2022-11-20T01:49:36.939Z,-4.31
2022-11-20T01:52:24.119Z,-4.34
2022-11-20T01:55:14.188Z,-4.45
2022-11-20T01:57:42.046Z,-4.52
2022-11-20T02:00:12.891Z,-4.56
2022-11-20T02:02:43.194Z,-4.55
2022-11-20T02:05:17.901Z,-4.53
2022-11-20T02:07:46.367Z,-4.51
2022-11-20T02:10:13.644Z,-4.46
2022-11-20T02:12:59.634Z,-4.48
2022-11-20T02:15:30.219Z,-4.53
2022-11-20T02:17:57.958Z,-4.56
2022-11-20T02:20:25.173Z,-4.62
2022-11-20T02:22:59.218Z,-4.63
2022-11-20T02:25:28.728Z,-4.59
2022-11-20T02:27:56.183Z,-4.58
2022-11-20T02:30:23.287Z,-4.56
2022-11-20T02:32:50.290Z,-4.60
2022-11-20T02:35:20.185Z,-4.63
2022-11-20T02:37:51.185Z,-4.68
2022-11-20T02:40:18.273Z,-4.56
2022-11-20T02:42:45.291Z,-4.58
2022-11-20T02:45:13.128Z,-4.63
2022-11-20T02:47:40.479Z,-4.59
2022-11-20T02:50:07.593Z,-4.57
2022-11-20T02:52:34.590Z,-4.59
2022-11-20T02:55:01.750Z,-4.62
2022-11-20T02:57:28.974Z,-4.65
2022-11-20T02:59:56.003Z,-4.65
2022-11-20T03:02:23.003Z,-4.63
2022-11-20T03:04:50.381Z,-4.59
2022-11-20T03:07:17.373Z,-4.59
2022-11-20T03:09:44.457Z,-4.57
2022-11-20T03:12:11.413Z,-4.66
2022-11-20T03:14:38.467Z,-4.70
2022-11-20T03:17:05.487Z,-4.67
2022-11-20T03:19:32.700Z,-4.70
2022-11-20T03:22:01.027Z,-4.67
2022-11-20T03:24:28.278Z,-4.59
2022-11-20T03:26:55.317Z,-4.61
2022-11-20T03:29:22.472Z,-4.53
2022-11-20T03:31:49.655Z,-4.54
2022-11-20T03:34:16.623Z,-4.54
2022-11-20T03:36:44.066Z,-4.51
2022-11-20T03:39:11.273Z,-4.51
2022-11-20T03:41:41.087Z,-4.57
2022-11-20T03:44:10.503Z,-4.64
2022-11-20T03:46:37.772Z,-4.71
2022-11-20T03:49:05.123Z,-4.68
2022-11-20T03:51:34.345Z,-4.71
2022-11-20T03:54:06.874Z,-4.81
2022-11-20T03:56:36.849Z,-4.85
2022-11-20T03:59:05.329Z,-4.84
2022-11-20T04:01:35.126Z,-4.80
2022-11-20T04:04:02.590Z,-4.80
2022-11-20T04:06:38.380Z,-4.81
2022-11-20T04:09:07.064Z,-4.84
2022-11-20T04:11:36.194Z,-4.91
2022-11-20T04:14:06.844Z,-4.93
2022-11-20T04:16:36.585Z,-4.90
2022-11-20T04:19:06.260Z,-4.88
2022-11-20T04:21:33.624Z,-4.93
2022-11-20T04:24:00.704Z,-4.94
2022-11-20T04:26:29.131Z,-4.83
2022-11-20T04:28:56.838Z,-4.81
2022-11-20T04:31:29.425Z,-4.88
2022-11-20T04:33:59.665Z,-4.96
2022-11-20T04:36:28.018Z,-4.97
2022-11-20T04:38:57.836Z,-5.13
2022-11-20T04:41:28.057Z,-5.10
2022-11-20T04:44:00.429Z,-5.06
2022-11-20T04:46:28.666Z,-5.06
2022-11-20T04:48:55.840Z,-4.95
2022-11-20T04:51:23.317Z,-4.93
2022-11-20T04:53:50.672Z,-4.94
2022-11-20T04:56:17.704Z,-4.99
2022-11-20T04:58:44.724Z,-5.11
2022-11-20T05:01:14.676Z,-5.23
2022-11-20T05:03:43.503Z,-5.12
2022-11-20T05:06:13.220Z,-5.10
2022-11-20T05:08:41.069Z,-5.07
2022-11-20T05:11:16.433Z,-5.09
2022-11-20T05:13:43.497Z,-5.16
2022-11-20T05:16:13.450Z,-5.20
2022-11-20T05:18:41.281Z,-5.16
2022-11-20T05:21:09.936Z,-5.15
2022-11-20T05:23:37.186Z,-5.23
2022-11-20T05:26:05.781Z,-5.20
2022-11-20T05:28:33.599Z,-5.24
2022-11-20T05:31:08.385Z,-5.24
2022-11-20T05:33:36.388Z,-5.22
2022-11-20T05:36:05.006Z,-5.17
2022-11-20T05:38:32.484Z,-5.14
2022-11-20T05:41:05.516Z,-5.10
2022-11-20T05:43:34.720Z,-5.09
2022-11-20T05:46:02.691Z,-5.11
2022-11-20T05:48:29.803Z,-5.13
2022-11-20T05:50:59.323Z,-5.21
2022-11-20T05:53:27.801Z,-5.33
2022-11-20T05:55:59.700Z,-5.46
2022-11-20T05:58:26.796Z,-5.46
2022-11-20T06:00:53.822Z,-5.42
2022-11-20T06:03:20.953Z,-5.37
2022-11-20T06:05:48.444Z,-5.36
2022-11-20T06:08:15.581Z,-5.29
2022-11-20T06:10:42.615Z,-5.31
2022-11-20T06:13:09.661Z,-5.38
2022-11-20T06:15:36.689Z,-5.41
2022-11-20T06:18:03.808Z,-5.39
2022-11-20T06:20:30.784Z,-5.37
2022-11-20T06:22:57.734Z,-5.40
2022-11-20T06:25:24.782Z,-5.49
2022-11-20T06:27:52.803Z,-5.55
2022-11-20T06:30:19.894Z,-5.55
2022-11-20T06:32:46.948Z,-5.52
2022-11-20T06:35:13.981Z,-5.62
2022-11-20T06:37:41.056Z,-5.38
2022-11-20T06:40:08.968Z,-5.33
2022-11-20T06:42:35.971Z,-5.39
2022-11-20T06:45:03.102Z,-5.42
2022-11-20T06:47:30.035Z,-5.37
2022-11-20T06:49:57.017Z,-5.34
2022-11-20T06:52:23.978Z,-5.34
2022-11-20T06:54:51.007Z,-5.25
2022-11-20T06:57:18.165Z,-5.35
2022-11-20T06:59:45.155Z,-5.27
2022-11-20T07:02:13.106Z,-5.29
2022-11-20T07:04:40.596Z,-5.32
2022-11-20T07:07:07.617Z,-5.35
2022-11-20T07:09:35.121Z,-5.40
2022-11-20T07:12:02.172Z,-5.48
2022-11-20T07:14:29.758Z,-5.43
2022-11-20T07:16:57.162Z,-5.47
2022-11-20T07:19:24.291Z,-5.44
2022-11-20T07:21:51.719Z,-5.42
2022-11-20T07:24:18.739Z,-5.41
2022-11-20T07:26:52.305Z,-5.41
2022-11-20T07:29:19.692Z,-5.37
2022-11-20T07:31:47.256Z,-5.33
2022-11-20T07:34:14.384Z,-5.34
2022-11-20T07:36:41.386Z,-5.28
2022-11-20T07:39:08.414Z,-5.28
2022-11-20T07:41:35.486Z,-5.23
2022-11-20T07:44:02.529Z,-5.19
2022-11-20T07:46:29.595Z,-5.16
2022-11-20T07:48:56.596Z,-5.12
2022-11-20T07:51:24.378Z,-5.11
2022-11-20T07:53:53.230Z,-5.03
2022-11-20T07:56:20.905Z,-5.00
2022-11-20T07:58:51.029Z,-4.90
2022-11-20T08:01:18.490Z,-4.84
2022-11-20T08:03:45.471Z,-4.78
2022-11-20T08:06:12.543Z,-4.73
2022-11-20T08:08:43.101Z,-4.65
2022-11-20T08:11:29.070Z,-4.65
2022-11-20T08:14:14.672Z,-4.51
2022-11-20T08:16:46.798Z,-4.43
2022-11-20T08:19:15.377Z,-4.43
2022-11-20T08:21:43.039Z,-4.35
2022-11-20T08:24:11.274Z,-4.29
2022-11-20T08:26:40.126Z,-4.25
2022-11-20T08:29:07.552Z,-4.19
2022-11-20T08:31:34.676Z,-4.09
2022-11-20T08:34:06.289Z,-4.06
2022-11-20T08:36:36.408Z,-4.01
2022-11-20T08:39:04.442Z,-3.94
2022-11-20T08:41:33.937Z,-3.92
2022-11-20T08:44:06.246Z,-3.83
2022-11-20T08:46:42.109Z,-3.80
2022-11-20T08:49:11.769Z,-3.77
2022-11-20T08:51:39.399Z,-3.79
2022-11-20T08:54:07.594Z,-3.76
2022-11-20T08:56:35.412Z,-3.67
2022-11-20T08:59:20.573Z,-3.59
2022-11-20T09:01:49.782Z,-3.52
2022-11-20T09:04:17.039Z,-3.43
2022-11-20T09:06:44.371Z,-3.36
2022-11-20T09:09:11.637Z,-3.29
2022-11-20T09:11:38.870Z,-3.23
2022-11-20T09:14:06.174Z,-3.23
2022-11-20T09:16:33.425Z,-3.12
2022-11-20T09:19:40.647Z,-3.10
2022-11-20T09:21:49.382Z,-3.02
2022-11-20T09:24:16.989Z,-3.10
2022-11-20T09:26:44.275Z,-2.96
2022-11-20T09:29:11.953Z,-2.96
2022-11-20T09:31:39.350Z,-2.92
2022-11-20T09:34:06.364Z,-2.95
2022-11-20T09:36:33.386Z,-2.93
2022-11-20T09:39:00.611Z,-2.93
2022-11-20T09:41:52.213Z,-2.82
2022-11-20T09:44:31.706Z,-2.71
2022-11-20T09:47:38.925Z,-2.61
2022-11-20T09:50:37.552Z,-2.58
2022-11-20T09:53:47.376Z,-2.49
2022-11-20T09:56:18.395Z,-2.55
2022-11-20T09:59:00.925Z,-2.40
2022-11-20T10:01:33.296Z,-2.45
2022-11-20T10:04:11.897Z,-2.25
2022-11-20T10:07:30.829Z,-2.24
2022-11-20T10:09:54.641Z,-2.12
2022-11-20T10:13:04.539Z,-2.03
2022-11-20T10:15:37.101Z,-1.92
2022-11-20T10:18:12.764Z,-1.92
2022-11-20T10:20:52.315Z,-1.88
2022-11-20T10:23:49.111Z,-1.84
2022-11-20T10:26:29.452Z,-1.83
2022-11-20T10:29:11.344Z,-1.74
2022-11-20T10:31:49.557Z,-1.70
2022-11-20T10:34:23.950Z,-1.61
2022-11-20T10:36:59.421Z,-1.58
2022-11-20T10:39:44.947Z,-1.51
2022-11-20T10:42:17.085Z,-1.46
2022-11-20T10:45:05.808Z,-1.46
2022-11-20T10:47:34.169Z,-1.35
2022-11-20T10:50:10.877Z,-1.31
2022-11-20T10:53:15.265Z,-1.22
2022-11-20T10:55:55.048Z,-1.18
2022-11-20T10:58:41.331Z,-1.10
2022-11-20T11:01:23.501Z,-1.04
2022-11-20T11:03:53.309Z,-0.99
2022-11-20T11:06:35.472Z,-0.88
2022-11-20T11:09:10.118Z,-0.84
2022-11-20T11:11:39.398Z,-0.80
2022-11-20T11:14:14.948Z,-0.81
2022-11-20T11:16:54.746Z,-0.72
2022-11-20T11:19:22.788Z,-0.74
2022-11-20T11:21:56.129Z,-0.68
2022-11-20T11:24:41.619Z,-0.70
2022-11-20T11:27:18.846Z,-0.68
2022-11-20T11:29:49.276Z,-0.59
2022-11-20T11:32:21.973Z,-0.58
2022-11-20T11:35:07.724Z,-0.49
2022-11-20T11:37:38.054Z,-0.43
2022-11-20T11:40:24.690Z,-0.43
2022-11-20T11:42:58.941Z,-0.35
2022-11-20T11:45:26.794Z,-0.32
2022-11-20T11:47:56.795Z,-0.35
2022-11-20T11:50:29.123Z,-0.23
2022-11-20T11:53:12.760Z,-0.26
2022-11-20T11:55:57.465Z,-0.21
2022-11-20T11:58:33.275Z,-0.12
2022-11-20T12:01:09.441Z,-0.09
2022-11-20T12:03:42.958Z,-0.06
2022-11-20T12:06:15.607Z,-0.02
2022-11-20T12:08:58.767Z,0.04
2022-11-20T12:11:34.835Z,0.05
2022-11-20T12:14:24.996Z,0.08
2022-11-20T12:16:53.775Z,0.10
2022-11-20T12:19:21.414Z,0.15
2022-11-20T12:22:07.958Z,0.18
2022-11-20T12:24:50.300Z,0.25
2022-11-20T12:27:45.346Z,0.28
2022-11-20T12:30:17.895Z,0.26
2022-11-20T12:32:51.214Z,0.38
2022-11-20T12:35:51.087Z,0.36
2022-11-20T12:38:43.068Z,0.44
2022-11-20T12:42:00.137Z,0.46
2022-11-20T12:44:52.144Z,0.46
2022-11-20T12:47:31.144Z,0.46
2022-11-20T12:50:53.364Z,0.41
2022-11-20T12:53:41.697Z,0.46
2022-11-20T12:56:11.540Z,0.45
2022-11-20T12:59:08.586Z,0.46
2022-11-20T13:01:56.948Z,0.44
2022-11-20T13:04:45.177Z,0.49
2022-11-20T13:07:17.083Z,0.47
2022-11-20T13:09:50.815Z,0.41
2022-11-20T13:12:26.510Z,0.44
2022-11-20T13:15:05.292Z,0.48
2022-11-20T13:17:44.158Z,0.59
2022-11-20T13:20:18.086Z,0.63
2022-11-20T13:22:50.568Z,0.69
2022-11-20T13:25:29.547Z,0.72
2022-11-20T13:27:58.939Z,0.71
2022-11-20T13:30:28.160Z,0.70
2022-11-20T13:32:56.771Z,0.71
2022-11-20T13:35:32.640Z,0.71
2022-11-20T13:38:09.120Z,0.73
2022-11-20T13:40:53.020Z,0.73
2022-11-20T13:43:39.777Z,0.81
2022-11-20T13:46:09.352Z,0.82
2022-11-20T13:48:44.606Z,0.76
2022-11-20T13:51:39.982Z,0.74
2022-11-20T13:54:25.614Z,0.75
2022-11-20T13:57:28.572Z,0.70
2022-11-20T14:00:11.845Z,0.72
2022-11-20T14:02:39.487Z,0.75
2022-11-20T14:05:07.069Z,0.72
2022-11-20T14:07:42.134Z,0.82
2022-11-20T14:10:31.663Z,0.76
2022-11-20T14:13:10.591Z,0.82
2022-11-20T14:15:44.655Z,0.78
2022-11-20T14:18:15.479Z,0.70
2022-11-20T14:20:43.678Z,0.69
2022-11-20T14:23:11.718Z,0.53
2022-11-20T14:25:43.650Z,0.49
2022-11-20T14:28:26.698Z,0.58
2022-11-20T14:30:54.697Z,0.57
2022-11-20T14:33:25.779Z,0.57
2022-11-20T14:35:58.469Z,0.57
2022-11-20T14:38:28.242Z,0.52
2022-11-20T14:40:55.557Z,0.56
2022-11-20T14:43:31.621Z,0.57
2022-11-20T14:46:05.189Z,0.56
2022-11-20T14:48:40.415Z,0.55
2022-11-20T14:51:11.409Z,0.54
2022-11-20T14:53:38.662Z,0.55
2022-11-20T14:56:05.768Z,0.55
2022-11-20T14:58:34.750Z,0.56
2022-11-20T15:01:07.994Z,0.50
2022-11-20T15:03:37.582Z,0.55
2022-11-20T15:06:06.588Z,0.54
2022-11-20T15:08:34.979Z,0.52
2022-11-20T15:11:02.894Z,0.57
2022-11-20T15:13:35.523Z,0.53
2022-11-20T15:16:04.662Z,0.55
2022-11-20T15:18:42.440Z,0.56
2022-11-20T15:21:14.730Z,0.58
2022-11-20T15:23:42.128Z,0.59
2022-11-20T15:26:15.431Z,0.58
2022-11-20T15:28:51.273Z,0.57
2022-11-20T15:31:22.970Z,0.57
2022-11-20T15:33:50.446Z,0.55
2022-11-20T15:36:18.349Z,0.50
2022-11-20T15:38:45.474Z,0.52
2022-11-20T15:41:12.568Z,0.52
2022-11-20T15:43:39.817Z,0.51
2022-11-20T15:46:20.294Z,0.47
2022-11-20T15:48:52.712Z,0.53
2022-11-20T15:51:30.268Z,0.47
2022-11-20T15:53:57.870Z,0.53
2022-11-20T15:56:25.468Z,0.50
2022-11-20T15:58:52.751Z,0.51
2022-11-20T16:01:23.083Z,0.51
2022-11-20T16:03:50.260Z,0.47
2022-11-20T16:06:17.400Z,0.49
2022-11-20T16:08:44.996Z,0.49
2022-11-20T16:11:17.027Z,0.49
2022-11-20T16:14:02.526Z,0.48
2022-11-20T16:16:31.120Z,0.45
2022-11-20T16:18:58.581Z,0.49
2022-11-20T16:21:32.235Z,0.52
2022-11-20T16:24:00.905Z,0.51
2022-11-20T16:26:28.746Z,0.51
2022-11-20T16:28:56.103Z,0.52
2022-11-20T16:31:23.300Z,0.52
2022-11-20T16:33:55.554Z,0.50
2022-11-20T16:36:25.022Z,0.52
2022-11-20T16:38:57.206Z,0.52
2022-11-20T16:41:26.647Z,0.60
2022-11-20T16:43:58.209Z,0.60
2022-11-20T16:46:27.726Z,0.62
2022-11-20T16:48:57.512Z,0.62
2022-11-20T16:51:25.422Z,0.65
2022-11-20T16:53:53.542Z,0.64
2022-11-20T16:56:22.625Z,0.68
2022-11-20T16:58:51.322Z,0.70
2022-11-20T17:01:21.417Z,0.69
2022-11-20T17:04:08.711Z,0.74
2022-11-20T17:06:41.543Z,0.75
2022-11-20T17:09:09.581Z,0.75
2022-11-20T17:11:37.333Z,0.76
2022-11-20T17:14:07.267Z,0.76
2022-11-20T17:16:35.870Z,0.78
2022-11-20T17:19:05.682Z,0.78
2022-11-20T17:21:35.997Z,0.81
2022-11-20T17:24:06.063Z,0.78
2022-11-20T17:26:34.103Z,0.77
2022-11-20T17:29:05.380Z,0.78
2022-11-20T17:31:34.723Z,0.79
2022-11-20T17:34:02.169Z,0.80
2022-11-20T17:36:30.045Z,0.78
2022-11-20T17:38:57.754Z,0.75
2022-11-20T17:41:27.383Z,0.76
2022-11-20T17:43:59.437Z,0.76
2022-11-20T17:46:29.163Z,0.76
2022-11-20T17:48:56.797Z,0.78
2022-11-20T17:51:29.172Z,0.81
2022-11-20T17:54:01.906Z,0.75
2022-11-20T17:56:52.294Z,0.83
2022-11-20T17:59:19.570Z,0.83
2022-11-20T18:01:46.999Z,0.85
2022-11-20T18:04:14.297Z,0.82
2022-11-20T18:06:42.417Z,0.85
2022-11-20T18:09:09.905Z,0.85
2022-11-20T18:11:39.457Z,0.87
2022-11-20T18:14:32.767Z,0.82
2022-11-20T18:17:06.940Z,0.86
2022-11-20T18:19:55.733Z,0.89
2022-11-20T18:22:30.274Z,0.87
2022-11-20T18:24:57.426Z,0.87
2022-11-20T18:27:24.790Z,0.85
2022-11-20T18:29:52.584Z,0.85
2022-11-20T18:32:22.155Z,0.83
2022-11-20T18:34:49.896Z,0.85
2022-11-20T18:37:17.492Z,0.84
2022-11-20T18:39:44.571Z,0.84
2022-11-20T18:42:34.810Z,0.87
2022-11-20T18:45:04.717Z,0.86
2022-11-20T18:47:37.337Z,0.86
2022-11-20T18:50:07.324Z,0.81
2022-11-20T18:52:44.548Z,0.80
2022-11-20T18:55:12.670Z,0.84
2022-11-20T18:57:39.886Z,0.84
2022-11-20T19:02:54.773Z,0.83
2022-11-20T19:05:22.222Z,0.85
2022-11-20T19:07:49.279Z,0.87
2022-11-20T19:10:20.087Z,0.88
2022-11-20T19:12:47.170Z,0.87
2022-11-20T19:15:14.230Z,0.85
2022-11-20T19:17:41.392Z,0.86
2022-11-20T19:20:08.802Z,0.88
2022-11-20T19:22:35.856Z,0.84
2022-11-20T19:25:02.979Z,0.86
2022-11-20T19:27:30.262Z,0.89
2022-11-20T19:30:03.128Z,0.90
2022-11-20T19:32:30.624Z,0.85
2022-11-20T19:34:57.739Z,0.90
2022-11-20T19:37:25.236Z,0.91
2022-11-20T19:39:52.547Z,0.89
2022-11-20T19:42:19.623Z,0.87
2022-11-20T19:44:46.763Z,0.90
2022-11-20T19:47:14.813Z,0.88
2022-11-20T19:49:42.167Z,0.81
2022-11-20T19:52:09.447Z,0.92
2022-11-20T19:54:37.199Z,0.88
2022-11-20T19:57:04.584Z,0.86
2022-11-20T19:59:31.736Z,0.84
2022-11-20T20:01:58.878Z,0.83
2022-11-20T20:04:25.941Z,0.84
2022-11-20T20:06:52.946Z,0.82
2022-11-20T20:09:20.971Z,0.83
2022-11-20T20:11:48.203Z,0.83
2022-11-20T20:14:16.218Z,0.83
2022-11-20T20:16:43.218Z,0.83
2022-11-20T20:19:16.959Z,0.81
2022-11-20T20:21:44.355Z,0.82
2022-11-20T20:24:12.465Z,0.84
2022-11-20T20:26:40.084Z,0.85
2022-11-20T20:29:07.257Z,0.83
2022-11-20T20:31:35.356Z,0.86
2022-11-20T20:34:05.121Z,0.85
2022-11-20T20:36:32.233Z,0.84
2022-11-20T20:38:59.782Z,0.94
2022-11-20T20:41:27.051Z,0.94
2022-11-20T20:44:13.560Z,0.96
2022-11-20T20:46:41.341Z,1.00
2022-11-20T20:49:08.631Z,0.99
2022-11-20T20:51:36.243Z,0.96
2022-11-20T20:54:03.807Z,0.98
2022-11-20T20:56:31.009Z,0.97
2022-11-20T20:58:58.116Z,0.96
2022-11-20T21:01:28.547Z,1.00
2022-11-20T21:03:56.645Z,0.99
2022-11-20T21:06:24.392Z,0.98
2022-11-20T21:08:51.447Z,0.96
2022-11-20T21:11:20.122Z,0.90
2022-11-20T21:13:48.270Z,0.94
2022-11-20T21:16:17.296Z,0.93
2022-11-20T21:18:44.740Z,0.92
2022-11-20T21:21:32.326Z,0.91
2022-11-20T21:23:59.570Z,0.98
2022-11-20T21:26:26.695Z,0.98
2022-11-20T21:28:54.085Z,0.97
2022-11-20T21:31:24.822Z,0.96
2022-11-20T21:33:53.919Z,0.96
2022-11-20T21:36:26.175Z,0.97
2022-11-20T21:38:55.069Z,0.94
2022-11-20T21:41:23.198Z,0.98
2022-11-20T21:44:29.000Z,0.99
2022-11-20T21:46:43.419Z,0.97
2022-11-20T21:49:10.861Z,0.98
2022-11-20T21:51:38.141Z,0.99
2022-11-20T21:54:05.480Z,1.01
2022-11-20T21:56:32.715Z,1.01
2022-11-20T21:58:59.797Z,1.01
2022-11-20T22:01:29.566Z,1.02
2022-11-20T22:04:01.566Z,1.01
2022-11-20T22:06:33.824Z,1.02
2022-11-20T22:09:02.265Z,1.02
2022-11-20T22:11:29.868Z,1.05
2022-11-20T22:14:15.787Z,1.06
2022-11-20T22:16:43.039Z,1.08
2022-11-20T22:19:10.147Z,1.10
2022-11-20T22:21:39.344Z,1.10
2022-11-20T22:24:06.465Z,1.10
2022-11-20T22:26:39.938Z,1.10
2022-11-20T22:29:10.995Z,1.14
2022-11-20T22:31:38.034Z,1.13
2022-11-20T22:34:05.042Z,1.15
2022-11-20T22:36:32.445Z,1.13
2022-11-20T22:39:02.631Z,1.13
2022-11-20T22:41:30.112Z,1.06
2022-11-20T22:44:02.392Z,1.09
2022-11-20T22:46:33.181Z,1.08
2022-11-20T22:49:02.951Z,1.08
2022-11-20T22:51:32.819Z,1.02
2022-11-20T22:54:00.834Z,1.04
2022-11-20T22:56:27.929Z,1.03
2022-11-20T22:58:55.274Z,1.03
2022-11-20T23:01:24.110Z,1.05
2022-11-20T23:03:56.282Z,1.04
2022-11-20T23:06:24.228Z,1.03
2022-11-20T23:08:51.538Z,1.02
2022-11-20T23:11:25.167Z,1.02
2022-11-20T23:13:58.213Z,1.04
2022-11-20T23:16:27.728Z,1.06
2022-11-20T23:19:00.666Z,1.08
2022-11-20T23:21:28.468Z,1.01
2022-11-20T23:23:57.224Z,1.08
2022-11-20T23:26:29.580Z,0.99
2022-11-20T23:28:57.925Z,1.04
2022-11-20T23:31:26.213Z,0.98
2022-11-20T23:33:53.492Z,1.01
2022-11-20T23:36:21.237Z,0.98
2022-11-20T23:38:48.592Z,1.01
2022-11-20T23:41:15.752Z,1.00
2022-11-20T23:43:42.837Z,1.01
2022-11-20T23:46:15.242Z,1.02
2022-11-20T23:48:44.817Z,0.97
2022-11-20T23:51:11.942Z,0.96
2022-11-20T23:53:38.956Z,0.97
2022-11-20T23:56:06.238Z,0.94
2022-11-20T23:58:35.994Z,0.98
